Time,TemperatureF,DewpointF,PressureIn,WindDirection,WindDirectionDegrees,WindSpeedMPH,WindSpeedGustMPH,Humidity,HourlyPrecipIn,Conditions,Clouds,dailyrainin,SolarRadiationWatts/m^2,SoftwareType,DateUTC
2013-07-17 00:00:00,77.0,69.0,-100.00,South,180,0.0,-999.0,74,-99.99,,,-99.99,0.000000,,2013-07-17 04:00:00,
2013-07-17 00:43:00,77.0,69.0,-100.00,South,180,0.0,-999.0,74,-99.99,,,-99.99,0.000000,,2013-07-17 04:43:00,
2013-07-17 00:53:00,77.0,69.0,-100.00,South,180,0.0,-999.0,74,-99.99,,,-99.99,0.000000,,2013-07-17 04:53:00,
2013-07-17 01:00:00,77.0,68.0,-100.00,South,180,0.0,-999.0,76,-99.99,,,-99.99,0.000000,,2013-07-17 05:00:00,
2013-07-17 01:43:00,77.0,68.0,-100.00,South,180,0.0,-999.0,76,-99.99,,,-99.99,0.000000,,2013-07-17 05:43:00,
2013-07-17 01:52:00,77.0,68.0,-100.00,South,180,0.0,-999.0,76,-99.99,,,-99.99,0.000000,,2013-07-17 05:52:00,
2013-07-17 02:00:00,76.0,69.0,-100.00,SSW,202,0.0,-999.0,77,-99.99,,,-99.99,0.000000,,2013-07-17 06:00:00,
2013-07-17 02:43:00,76.0,69.0,-100.00,SSW,202,0.0,-999.0,77,-99.99,,,-99.99,0.000000,,2013-07-17 06:43:00,
2013-07-17 02:52:00,76.0,69.0,-100.00,SSW,202,0.0,-999.0,77,-99.99,,,-99.99,0.000000,,2013-07-17 06:52:00,
2013-07-17 03:00:00,75.0,69.0,-100.00,South,180,1.0,-999.0,80,-99.99,,,-99.99,0.000000,,2013-07-17 07:00:00,
2013-07-17 03:42:00,75.0,69.0,-100.00,South,180,1.0,-999.0,80,-99.99,,,-99.99,0.000000,,2013-07-17 07:42:00,
2013-07-17 03:52:00,75.0,69.0,-100.00,South,180,1.0,-999.0,80,-99.99,,,-99.99,0.000000,,2013-07-17 07:52:00,
2013-07-17 04:00:00,74.0,69.0,-100.00,SW,225,1.0,-999.0,82,-99.99,,,-99.99,0.000000,,2013-07-17 08:00:00,
2013-07-17 04:43:00,74.0,69.0,-100.00,SW,225,1.0,-999.0,82,-99.99,,,-99.99,0.000000,,2013-07-17 08:43:00,
2013-07-17 04:53:00,74.0,69.0,-100.00,SW,225,1.0,-999.0,82,-99.99,,,-99.99,0.000000,,2013-07-17 08:53:00,
2013-07-17 05:00:00,74.0,69.0,-100.00,SW,225,0.0,-999.0,84,-99.99,,,-99.99,0.000000,,2013-07-17 09:00:00,
2013-07-17 05:43:00,74.0,69.0,-100.00,SW,225,0.0,-999.0,84,-99.99,,,-99.99,0.000000,,2013-07-17 09:43:00,
2013-07-17 05:52:00,74.0,69.0,-100.00,SW,225,0.0,-999.0,84,-99.99,,,-99.99,0.000000,,2013-07-17 09:52:00,
2013-07-17 06:00:00,73.0,68.0,-100.00,SSW,202,0.0,-999.0,86,-99.99,,,-99.99,0.000000,,2013-07-17 10:00:00,
2013-07-17 06:43:00,73.0,68.0,-100.00,SSW,202,0.0,-999.0,86,-99.99,,,-99.99,0.000000,,2013-07-17 10:43:00,
2013-07-17 06:52:00,73.0,68.0,-100.00,SSW,202,0.0,-999.0,86,-99.99,,,-99.99,0.000000,,2013-07-17 10:52:00,
2013-07-17 07:00:00,73.0,68.0,-100.00,SSW,202,0.0,-999.0,86,-99.99,,,-99.99,9.280000,,2013-07-17 11:00:00,
2013-07-17 07:42:00,73.0,68.0,-100.00,SSW,202,0.0,-999.0,86,-99.99,,,-99.99,9.280000,,2013-07-17 11:42:00,
2013-07-17 07:52:00,73.0,68.0,-100.00,SSW,202,0.0,-999.0,86,-99.99,,,-99.99,9.280000,,2013-07-17 11:52:00,
2013-07-17 08:00:00,75.0,69.0,-100.00,SSW,202,1.0,-999.0,81,-99.99,,,-99.99,84.680000,,2013-07-17 12:00:00,
2013-07-17 08:43:00,75.0,69.0,-100.00,SSW,202,1.0,-999.0,81,-99.99,,,-99.99,84.680000,,2013-07-17 12:43:00,
2013-07-17 08:53:00,75.0,69.0,-100.00,SSW,202,1.0,-999.0,81,-99.99,,,-99.99,84.680000,,2013-07-17 12:53:00,
2013-07-17 09:00:00,77.0,70.0,-100.00,WSW,247,2.0,-999.0,78,-99.99,,,-99.99,198.360001,,2013-07-17 13:00:00,
2013-07-17 09:43:00,77.0,70.0,-100.00,WSW,247,2.0,-999.0,78,-99.99,,,-99.99,198.360001,,2013-07-17 13:43:00,
2013-07-17 09:53:00,77.0,70.0,-100.00,WSW,247,2.0,-999.0,78,-99.99,,,-99.99,198.360001,,2013-07-17 13:53:00,
2013-07-17 10:00:00,80.0,71.0,-100.00,West,270,3.0,-999.0,72,-99.99,,,-99.99,393.239990,,2013-07-17 14:00:00,
2013-07-17 10:43:00,80.0,71.0,-100.00,West,270,3.0,-999.0,72,-99.99,,,-99.99,393.239990,,2013-07-17 14:43:00,
2013-07-17 10:52:00,80.0,71.0,-100.00,West,270,3.0,-999.0,72,-99.99,,,-99.99,393.239990,,2013-07-17 14:52:00,
2013-07-17 11:00:00,82.0,72.0,-100.00,WNW,292,3.0,-999.0,71,-99.99,,,-99.99,331.760010,,2013-07-17 15:00:00,
2013-07-17 11:43:00,82.0,72.0,-100.00,WNW,292,3.0,-999.0,71,-99.99,,,-99.99,331.760010,,2013-07-17 15:43:00,
2013-07-17 11:52:00,82.0,72.0,-100.00,WNW,292,3.0,-999.0,71,-99.99,,,-99.99,331.760010,,2013-07-17 15:52:00,
2013-07-17 13:00:00,85.0,73.0,-100.00,West,270,4.0,-999.0,66,-99.99,,,-99.99,683.239990,,2013-07-17 17:00:00,
2013-07-17 13:43:00,85.0,73.0,-100.00,West,270,4.0,-999.0,66,-99.99,,,-99.99,683.239990,,2013-07-17 17:43:00,
2013-07-17 13:52:00,85.0,73.0,-100.00,West,270,4.0,-999.0,66,-99.99,,,-99.99,683.239990,,2013-07-17 17:52:00,
2013-07-17 14:00:00,86.0,73.0,-100.00,WNW,292,4.0,-999.0,64,-99.99,,,-99.99,617.119995,,2013-07-17 18:00:00,
2013-07-17 14:43:00,86.0,73.0,-100.00,WNW,292,4.0,-999.0,64,-99.99,,,-99.99,617.119995,,2013-07-17 18:43:00,
2013-07-17 14:52:00,86.0,73.0,-100.00,WNW,292,4.0,-999.0,64,-99.99,,,-99.99,617.119995,,2013-07-17 18:52:00,
2013-07-17 15:00:00,87.0,73.0,-100.00,NW,315,4.0,-999.0,62,-99.99,,,-99.99,745.880005,,2013-07-17 19:00:00,
2013-07-17 15:53:00,87.0,73.0,-100.00,NW,315,4.0,-999.0,62,-99.99,,,-99.99,745.880005,,2013-07-17 19:53:00,
2013-07-17 16:00:00,88.0,71.0,-100.00,WNW,292,5.0,-999.0,58,-99.99,,,-99.99,735.440002,,2013-07-17 20:00:00,
2013-07-17 16:53:00,88.0,71.0,-100.00,WNW,292,5.0,-999.0,58,-99.99,,,-99.99,735.440002,,2013-07-17 20:53:00,
2013-07-17 17:00:00,89.0,71.0,-100.00,NW,315,4.0,-999.0,56,-99.99,,,-99.99,668.159973,,2013-07-17 21:00:00,
2013-07-17 17:42:00,89.0,71.0,-100.00,NW,315,4.0,-999.0,56,-99.99,,,-99.99,668.159973,,2013-07-17 21:42:00,
2013-07-17 17:53:00,89.0,71.0,-100.00,NW,315,4.0,-999.0,56,-99.99,,,-99.99,668.159973,,2013-07-17 21:53:00,
2013-07-17 18:00:00,89.0,70.0,-100.00,WNW,292,4.0,-999.0,53,-99.99,,,-99.99,538.239990,,2013-07-17 22:00:00,
2013-07-17 18:43:00,89.0,70.0,-100.00,WNW,292,4.0,-999.0,53,-99.99,,,-99.99,538.239990,,2013-07-17 22:43:00,
2013-07-17 18:53:00,89.0,70.0,-100.00,WNW,292,4.0,-999.0,53,-99.99,,,-99.99,538.239990,,2013-07-17 22:53:00,
2013-07-17 19:00:00,88.0,69.0,-100.00,West,270,3.0,-999.0,53,-99.99,,,-99.99,386.279999,,2013-07-17 23:00:00,
2013-07-17 19:43:00,88.0,69.0,-100.00,West,270,3.0,-999.0,53,-99.99,,,-99.99,386.279999,,2013-07-17 23:43:00,
2013-07-17 19:52:00,88.0,69.0,-100.00,West,270,3.0,-999.0,53,-99.99,,,-99.99,386.279999,,2013-07-17 23:52:00,
2013-07-17 20:00:00,88.0,68.0,-100.00,WNW,292,2.0,-999.0,52,-99.99,,,-99.99,227.360001,,2013-07-18 00:00:00,
2013-07-17 20:43:00,88.0,68.0,-100.00,WNW,292,2.0,-999.0,52,-99.99,,,-99.99,227.360001,,2013-07-18 00:43:00,
2013-07-17 20:52:00,88.0,68.0,-100.00,WNW,292,2.0,-999.0,52,-99.99,,,-99.99,227.360001,,2013-07-18 00:52:00,
2013-07-17 22:00:00,78.0,70.0,-100.00,SE,135,0.0,-999.0,77,-99.99,,,-99.99,1.160000,,2013-07-18 02:00:00,
2013-07-17 22:43:00,78.0,70.0,-100.00,SE,135,0.0,-999.0,77,-99.99,,,-99.99,1.160000,,2013-07-18 02:43:00,
2013-07-17 22:52:00,78.0,70.0,-100.00,SE,135,0.0,-999.0,77,-99.99,,,-99.99,1.160000,,2013-07-18 02:52:00,
2013-07-17 23:00:00,77.0,69.0,-100.00,SE,135,0.0,-999.0,78,-99.99,,,-99.99,0.000000,,2013-07-18 03:00:00,
2013-07-17 23:52:00,77.0,69.0,-100.00,SE,135,0.0,-999.0,78,-99.99,,,-99.99,0.000000,,2013-07-18 03:52:00,